sensor_id;sensor_type;location;lat;lon;timestamp;P1;durP1;ratioP1;P2;durP2;ratioP2
9799;SDS011;4939;52.00085300;4.17406100;2022-09-09T00:00:46;9.52;;;2.90;;
9799;SDS011;4939;52.00085300;4.17406100;2022-09-09T00:03:25;15.85;;;4.10;;
9799;SDS011;4939;52.00085300;4.17406100;2022-09-09T00:08:22;15.45;;;5.75;;
9799;SDS011;4939;52.00085300;4.17406100;2022-09-09T00:10:56;14.20;;;5.43;;
9799;SDS011;4939;52.00085300;4.17406100;2022-09-09T00:13:29;15.15;;;6.35;;
9799;SDS011;4939;52.00085300;4.17406100;2022-09-09T00:16:04;13.45;;;6.18;;
9799;SDS011;4939;52.00085300;4.17406100;2022-09-09T00:18:44;13.95;;;6.88;;
9799;SDS011;4939;52.00085300;4.17406100;2022-09-09T00:21:15;19.38;;;8.25;;
9799;SDS011;4939;52.00085300;4.17406100;2022-09-09T00:23:52;23.38;;;9.43;;
9799;SDS011;4939;52.00085300;4.17406100;2022-09-09T00:26:38;17.27;;;9.93;;
9799;SDS011;4939;52.00085300;4.17406100;2022-09-09T00:31:38;19.85;;;10.73;;
9799;SDS011;4939;52.00085300;4.17406100;2022-09-09T00:34:08;24.30;;;11.90;;
9799;SDS011;4939;52.00085300;4.17406100;2022-09-09T00:36:36;21.35;;;11.77;;
9799;SDS011;4939;52.00085300;4.17406100;2022-09-09T00:39:03;22.65;;;10.48;;
9799;SDS011;4939;52.00085300;4.17406100;2022-09-09T00:41:43;22.17;;;11.02;;
9799;SDS011;4939;52.00085300;4.17406100;2022-09-09T00:44:34;23.10;;;11.10;;
9799;SDS011;4939;52.00085300;4.17406100;2022-09-09T00:49:33;25.63;;;11.23;;
9799;SDS011;4939;52.00085300;4.17406100;2022-09-09T00:52:26;24.98;;;11.05;;
9799;SDS011;4939;52.00085300;4.17406100;2022-09-09T00:59:50;27.25;;;11.82;;
9799;SDS011;4939;52.00085300;4.17406100;2022-09-09T01:05:05;22.50;;;10.65;;
9799;SDS011;4939;52.00085300;4.17406100;2022-09-09T01:09:59;21.05;;;9.75;;
9799;SDS011;4939;52.00085300;4.17406100;2022-09-09T01:12:33;20.40;;;9.10;;
9799;SDS011;4939;52.00085300;4.17406100;2022-09-09T01:15:03;18.13;;;8.98;;
9799;SDS011;4939;52.00085300;4.17406100;2022-09-09T01:17:35;20.17;;;7.93;;
9799;SDS011;4939;52.00085300;4.17406100;2022-09-09T01:27:46;20.98;;;7.97;;
9799;SDS011;4939;52.00085300;4.17406100;2022-09-09T01:30:14;25.20;;;9.20;;
9799;SDS011;4939;52.00085300;4.17406100;2022-09-09T01:32:42;19.27;;;7.25;;
9799;SDS011;4939;52.00085300;4.17406100;2022-09-09T01:35:21;20.67;;;7.85;;
9799;SDS011;4939;52.00085300;4.17406100;2022-09-09T01:37:50;18.20;;;7.00;;
9799;SDS011;4939;52.00085300;4.17406100;2022-09-09T01:40:16;16.02;;;6.18;;
9799;SDS011;4939;52.00085300;4.17406100;2022-09-09T01:42:43;16.70;;;6.97;;
9799;SDS011;4939;52.00085300;4.17406100;2022-09-09T01:45:09;15.38;;;6.63;;
9799;SDS011;4939;52.00085300;4.17406100;2022-09-09T01:47:35;16.45;;;6.43;;
9799;SDS011;4939;52.00085300;4.17406100;2022-09-09T01:50:01;22.27;;;6.72;;
9799;SDS011;4939;52.00085300;4.17406100;2022-09-09T01:52:28;18.88;;;6.18;;
9799;SDS011;4939;52.00085300;4.17406100;2022-09-09T01:54:55;15.98;;;5.95;;
9799;SDS011;4939;52.00085300;4.17406100;2022-09-09T01:57:25;14.07;;;5.63;;
9799;SDS011;4939;52.00085300;4.17406100;2022-09-09T01:59:57;11.98;;;5.00;;
9799;SDS011;4939;52.00085300;4.17406100;2022-09-09T02:02:36;14.98;;;5.13;;
9799;SDS011;4939;52.00085300;4.17406100;2022-09-09T02:05:08;15.20;;;4.57;;
9799;SDS011;4939;52.00085300;4.17406100;2022-09-09T02:07:40;12.23;;;4.45;;
9799;SDS011;4939;52.00085300;4.17406100;2022-09-09T02:10:09;13.95;;;4.40;;
9799;SDS011;4939;52.00085300;4.17406100;2022-09-09T02:12:39;11.40;;;3.97;;
9799;SDS011;4939;52.00085300;4.17406100;2022-09-09T02:15:07;10.55;;;3.78;;
9799;SDS011;4939;52.00085300;4.17406100;2022-09-09T02:17:37;12.10;;;4.50;;
9799;SDS011;4939;52.00085300;4.17406100;2022-09-09T02:20:05;13.93;;;4.40;;
9799;SDS011;4939;52.00085300;4.17406100;2022-09-09T02:22:33;7.82;;;4.05;;
9799;SDS011;4939;52.00085300;4.17406100;2022-09-09T02:25:00;14.32;;;4.05;;
9799;SDS011;4939;52.00085300;4.17406100;2022-09-09T02:27:27;11.20;;;3.92;;
9799;SDS011;4939;52.00085300;4.17406100;2022-09-09T02:29:53;11.32;;;3.70;;
9799;SDS011;4939;52.00085300;4.17406100;2022-09-09T02:32:22;12.90;;;3.28;;
9799;SDS011;4939;52.00085300;4.17406100;2022-09-09T02:34:50;11.77;;;3.40;;
9799;SDS011;4939;52.00085300;4.17406100;2022-09-09T02:37:17;9.50;;;3.33;;
9799;SDS011;4939;52.00085300;4.17406100;2022-09-09T02:39:44;11.02;;;3.17;;
9799;SDS011;4939;52.00085300;4.17406100;2022-09-09T02:42:11;13.05;;;3.63;;
9799;SDS011;4939;52.00085300;4.17406100;2022-09-09T02:44:39;15.25;;;4.05;;
9799;SDS011;4939;52.00085300;4.17406100;2022-09-09T02:47:13;10.38;;;3.40;;
9799;SDS011;4939;52.00085300;4.17406100;2022-09-09T02:54:57;11.65;;;3.95;;
9799;SDS011;4939;52.00085300;4.17406100;2022-09-09T02:57:28;9.48;;;3.35;;
9799;SDS011;4939;52.00085300;4.17406100;2022-09-09T02:59:57;9.60;;;3.58;;
9799;SDS011;4939;52.00085300;4.17406100;2022-09-09T03:02:23;8.50;;;3.70;;
9799;SDS011;4939;52.00085300;4.17406100;2022-09-09T03:04:50;7.80;;;3.10;;
9799;SDS011;4939;52.00085300;4.17406100;2022-09-09T03:07:17;12.75;;;3.33;;
9799;SDS011;4939;52.00085300;4.17406100;2022-09-09T03:09:43;11.23;;;3.42;;
9799;SDS011;4939;52.00085300;4.17406100;2022-09-09T03:12:10;8.77;;;3.10;;
9799;SDS011;4939;52.00085300;4.17406100;2022-09-09T03:14:36;10.50;;;2.85;;
9799;SDS011;4939;52.00085300;4.17406100;2022-09-09T03:17:03;10.18;;;3.22;;
9799;SDS011;4939;52.00085300;4.17406100;2022-09-09T03:19:30;9.70;;;2.88;;
9799;SDS011;4939;52.00085300;4.17406100;2022-09-09T03:21:56;10.40;;;3.00;;
9799;SDS011;4939;52.00085300;4.17406100;2022-09-09T03:24:23;10.68;;;2.97;;
9799;SDS011;4939;52.00085300;4.17406100;2022-09-09T03:26:49;8.52;;;2.88;;
9799;SDS011;4939;52.00085300;4.17406100;2022-09-09T03:29:16;10.25;;;3.25;;
9799;SDS011;4939;52.00085300;4.17406100;2022-09-09T03:31:43;10.73;;;3.15;;
9799;SDS011;4939;52.00085300;4.17406100;2022-09-09T03:34:09;13.13;;;3.35;;
9799;SDS011;4939;52.00085300;4.17406100;2022-09-09T03:36:35;11.65;;;3.67;;
9799;SDS011;4939;52.00085300;4.17406100;2022-09-09T03:39:01;9.90;;;3.40;;
9799;SDS011;4939;52.00085300;4.17406100;2022-09-09T03:41:28;14.93;;;3.40;;
9799;SDS011;4939;52.00085300;4.17406100;2022-09-09T03:43:54;9.27;;;3.00;;
9799;SDS011;4939;52.00085300;4.17406100;2022-09-09T03:46:21;12.18;;;3.10;;
9799;SDS011;4939;52.00085300;4.17406100;2022-09-09T03:48:48;10.30;;;3.25;;
9799;SDS011;4939;52.00085300;4.17406100;2022-09-09T03:51:14;14.15;;;3.17;;
9799;SDS011;4939;52.00085300;4.17406100;2022-09-09T03:53:41;15.23;;;3.42;;
9799;SDS011;4939;52.00085300;4.17406100;2022-09-09T03:56:08;11.60;;;3.53;;
9799;SDS011;4939;52.00085300;4.17406100;2022-09-09T03:58:35;11.13;;;3.42;;
9799;SDS011;4939;52.00085300;4.17406100;2022-09-09T04:01:08;8.23;;;2.70;;
9799;SDS011;4939;52.00085300;4.17406100;2022-09-09T04:03:34;11.63;;;3.05;;
9799;SDS011;4939;52.00085300;4.17406100;2022-09-09T04:06:01;11.05;;;3.00;;
9799;SDS011;4939;52.00085300;4.17406100;2022-09-09T04:08:28;11.07;;;2.90;;
9799;SDS011;4939;52.00085300;4.17406100;2022-09-09T04:10:57;13.13;;;3.17;;
9799;SDS011;4939;52.00085300;4.17406100;2022-09-09T04:13:24;9.27;;;2.70;;
9799;SDS011;4939;52.00085300;4.17406100;2022-09-09T04:15:55;9.02;;;3.17;;
9799;SDS011;4939;52.00085300;4.17406100;2022-09-09T04:18:21;9.55;;;3.22;;
9799;SDS011;4939;52.00085300;4.17406100;2022-09-09T04:20:48;10.55;;;3.15;;
9799;SDS011;4939;52.00085300;4.17406100;2022-09-09T04:23:14;14.45;;;3.28;;
9799;SDS011;4939;52.00085300;4.17406100;2022-09-09T04:25:48;11.27;;;3.28;;
9799;SDS011;4939;52.00085300;4.17406100;2022-09-09T04:28:14;11.00;;;2.72;;
9799;SDS011;4939;52.00085300;4.17406100;2022-09-09T04:30:40;11.90;;;2.80;;
9799;SDS011;4939;52.00085300;4.17406100;2022-09-09T04:33:07;11.63;;;2.80;;
9799;SDS011;4939;52.00085300;4.17406100;2022-09-09T04:35:33;11.80;;;2.95;;
9799;SDS011;4939;52.00085300;4.17406100;2022-09-09T04:37:59;18.50;;;3.13;;
9799;SDS011;4939;52.00085300;4.17406100;2022-09-09T04:40:27;10.32;;;3.38;;
9799;SDS011;4939;52.00085300;4.17406100;2022-09-09T04:42:54;9.88;;;2.70;;
9799;SDS011;4939;52.00085300;4.17406100;2022-09-09T04:45:21;12.25;;;3.28;;
9799;SDS011;4939;52.00085300;4.17406100;2022-09-09T04:47:47;8.93;;;2.90;;
9799;SDS011;4939;52.00085300;4.17406100;2022-09-09T04:50:14;14.07;;;3.50;;
9799;SDS011;4939;52.00085300;4.17406100;2022-09-09T04:52:40;13.65;;;3.10;;
9799;SDS011;4939;52.00085300;4.17406100;2022-09-09T04:55:07;12.05;;;3.00;;
9799;SDS011;4939;52.00085300;4.17406100;2022-09-09T04:57:34;10.02;;;3.03;;
9799;SDS011;4939;52.00085300;4.17406100;2022-09-09T05:00:01;9.52;;;3.20;;
9799;SDS011;4939;52.00085300;4.17406100;2022-09-09T05:02:27;8.63;;;3.03;;
9799;SDS011;4939;52.00085300;4.17406100;2022-09-09T05:04:55;15.15;;;3.40;;
9799;SDS011;4939;52.00085300;4.17406100;2022-09-09T05:07:21;12.80;;;3.70;;
9799;SDS011;4939;52.00085300;4.17406100;2022-09-09T05:09:47;12.40;;;3.17;;
9799;SDS011;4939;52.00085300;4.17406100;2022-09-09T05:12:15;10.18;;;3.42;;
9799;SDS011;4939;52.00085300;4.17406100;2022-09-09T05:14:42;14.00;;;4.43;;
9799;SDS011;4939;52.00085300;4.17406100;2022-09-09T05:17:08;15.57;;;3.50;;
9799;SDS011;4939;52.00085300;4.17406100;2022-09-09T05:19:34;12.18;;;3.70;;
9799;SDS011;4939;52.00085300;4.17406100;2022-09-09T05:22:00;11.48;;;3.63;;
9799;SDS011;4939;52.00085300;4.17406100;2022-09-09T05:24:27;10.98;;;3.47;;
9799;SDS011;4939;52.00085300;4.17406100;2022-09-09T05:26:53;11.18;;;3.38;;
9799;SDS011;4939;52.00085300;4.17406100;2022-09-09T05:29:26;10.40;;;3.33;;
9799;SDS011;4939;52.00085300;4.17406100;2022-09-09T05:31:52;12.32;;;3.20;;
9799;SDS011;4939;52.00085300;4.17406100;2022-09-09T05:34:18;15.07;;;3.50;;
9799;SDS011;4939;52.00085300;4.17406100;2022-09-09T05:36:45;11.02;;;3.72;;
9799;SDS011;4939;52.00085300;4.17406100;2022-09-09T05:39:12;10.13;;;2.80;;
9799;SDS011;4939;52.00085300;4.17406100;2022-09-09T05:41:38;8.85;;;3.00;;
9799;SDS011;4939;52.00085300;4.17406100;2022-09-09T05:44:05;10.52;;;3.33;;
9799;SDS011;4939;52.00085300;4.17406100;2022-09-09T05:46:31;14.27;;;3.20;;
9799;SDS011;4939;52.00085300;4.17406100;2022-09-09T05:48:57;10.05;;;3.05;;
9799;SDS011;4939;52.00085300;4.17406100;2022-09-09T05:51:24;10.20;;;3.03;;
9799;SDS011;4939;52.00085300;4.17406100;2022-09-09T05:53:51;12.93;;;3.20;;
9799;SDS011;4939;52.00085300;4.17406100;2022-09-09T05:56:20;14.02;;;3.35;;
9799;SDS011;4939;52.00085300;4.17406100;2022-09-09T05:58:47;9.80;;;3.33;;
9799;SDS011;4939;52.00085300;4.17406100;2022-09-09T06:01:15;18.25;;;3.70;;
9799;SDS011;4939;52.00085300;4.17406100;2022-09-09T06:03:42;13.75;;;3.75;;
9799;SDS011;4939;52.00085300;4.17406100;2022-09-09T06:06:10;11.88;;;3.40;;
9799;SDS011;4939;52.00085300;4.17406100;2022-09-09T06:08:37;21.90;;;4.95;;
9799;SDS011;4939;52.00085300;4.17406100;2022-09-09T06:11:05;16.42;;;4.68;;
9799;SDS011;4939;52.00085300;4.17406100;2022-09-09T06:13:31;16.98;;;4.47;;
9799;SDS011;4939;52.00085300;4.17406100;2022-09-09T06:16:00;12.20;;;4.97;;
9799;SDS011;4939;52.00085300;4.17406100;2022-09-09T06:18:26;13.13;;;4.70;;
9799;SDS011;4939;52.00085300;4.17406100;2022-09-09T06:20:56;15.38;;;4.18;;
9799;SDS011;4939;52.00085300;4.17406100;2022-09-09T06:23:23;14.95;;;4.32;;
9799;SDS011;4939;52.00085300;4.17406100;2022-09-09T06:25:50;12.32;;;4.25;;
9799;SDS011;4939;52.00085300;4.17406100;2022-09-09T06:28:16;16.05;;;4.47;;
9799;SDS011;4939;52.00085300;4.17406100;2022-09-09T06:30:42;14.43;;;4.47;;
9799;SDS011;4939;52.00085300;4.17406100;2022-09-09T06:33:09;12.55;;;5.32;;
9799;SDS011;4939;52.00085300;4.17406100;2022-09-09T06:35:35;11.57;;;4.47;;
9799;SDS011;4939;52.00085300;4.17406100;2022-09-09T06:38:02;18.95;;;5.00;;
9799;SDS011;4939;52.00085300;4.17406100;2022-09-09T06:40:28;13.13;;;5.10;;
9799;SDS011;4939;52.00085300;4.17406100;2022-09-09T06:42:58;16.92;;;4.95;;
9799;SDS011;4939;52.00085300;4.17406100;2022-09-09T06:45:24;15.20;;;5.00;;
9799;SDS011;4939;52.00085300;4.17406100;2022-09-09T06:47:50;12.52;;;4.78;;
9799;SDS011;4939;52.00085300;4.17406100;2022-09-09T06:50:17;12.52;;;5.18;;
9799;SDS011;4939;52.00085300;4.17406100;2022-09-09T06:52:45;16.75;;;5.00;;
9799;SDS011;4939;52.00085300;4.17406100;2022-09-09T06:55:12;19.02;;;5.57;;
9799;SDS011;4939;52.00085300;4.17406100;2022-09-09T06:57:40;15.00;;;6.03;;
9799;SDS011;4939;52.00085300;4.17406100;2022-09-09T07:00:06;25.85;;;5.78;;
9799;SDS011;4939;52.00085300;4.17406100;2022-09-09T07:02:33;17.23;;;6.35;;
9799;SDS011;4939;52.00085300;4.17406100;2022-09-09T07:05:03;14.73;;;5.97;;
9799;SDS011;4939;52.00085300;4.17406100;2022-09-09T07:07:30;15.48;;;5.85;;
9799;SDS011;4939;52.00085300;4.17406100;2022-09-09T07:09:56;15.93;;;5.75;;
9799;SDS011;4939;52.00085300;4.17406100;2022-09-09T07:12:22;13.15;;;5.60;;
9799;SDS011;4939;52.00085300;4.17406100;2022-09-09T07:14:48;19.70;;;6.15;;
9799;SDS011;4939;52.00085300;4.17406100;2022-09-09T07:17:14;18.88;;;5.40;;
9799;SDS011;4939;52.00085300;4.17406100;2022-09-09T07:19:40;12.93;;;5.40;;
9799;SDS011;4939;52.00085300;4.17406100;2022-09-09T07:22:06;16.65;;;5.82;;
9799;SDS011;4939;52.00085300;4.17406100;2022-09-09T07:24:32;14.52;;;6.25;;
9799;SDS011;4939;52.00085300;4.17406100;2022-09-09T07:26:58;14.13;;;5.72;;
9799;SDS011;4939;52.00085300;4.17406100;2022-09-09T07:29:24;15.57;;;5.35;;
9799;SDS011;4939;52.00085300;4.17406100;2022-09-09T07:31:50;15.02;;;5.82;;
9799;SDS011;4939;52.00085300;4.17406100;2022-09-09T07:34:16;16.45;;;5.93;;
9799;SDS011;4939;52.00085300;4.17406100;2022-09-09T07:36:43;15.20;;;5.85;;
9799;SDS011;4939;52.00085300;4.17406100;2022-09-09T07:39:11;12.93;;;5.72;;
9799;SDS011;4939;52.00085300;4.17406100;2022-09-09T07:41:46;13.82;;;5.75;;
9799;SDS011;4939;52.00085300;4.17406100;2022-09-09T07:44:19;13.18;;;5.68;;
9799;SDS011;4939;52.00085300;4.17406100;2022-09-09T07:46:46;19.55;;;5.70;;
9799;SDS011;4939;52.00085300;4.17406100;2022-09-09T07:49:12;13.85;;;5.35;;
9799;SDS011;4939;52.00085300;4.17406100;2022-09-09T07:51:39;14.00;;;5.45;;
9799;SDS011;4939;52.00085300;4.17406100;2022-09-09T07:54:09;13.40;;;5.28;;
9799;SDS011;4939;52.00085300;4.17406100;2022-09-09T07:56:36;12.68;;;5.38;;
9799;SDS011;4939;52.00085300;4.17406100;2022-09-09T07:59:02;15.40;;;5.55;;
9799;SDS011;4939;52.00085300;4.17406100;2022-09-09T08:01:41;15.48;;;5.18;;
9799;SDS011;4939;52.00085300;4.17406100;2022-09-09T08:04:12;17.80;;;5.20;;
9799;SDS011;4939;52.00085300;4.17406100;2022-09-09T08:06:45;15.52;;;5.15;;
9799;SDS011;4939;52.00085300;4.17406100;2022-09-09T08:09:12;14.10;;;5.38;;
9799;SDS011;4939;52.00085300;4.17406100;2022-09-09T08:11:38;13.18;;;5.57;;
9799;SDS011;4939;52.00085300;4.17406100;2022-09-09T08:14:05;16.17;;;5.65;;
9799;SDS011;4939;52.00085300;4.17406100;2022-09-09T08:16:33;10.50;;;4.78;;
9799;SDS011;4939;52.00085300;4.17406100;2022-09-09T08:19:01;16.35;;;5.10;;
9799;SDS011;4939;52.00085300;4.17406100;2022-09-09T08:21:29;14.70;;;5.25;;
9799;SDS011;4939;52.00085300;4.17406100;2022-09-09T08:23:55;16.17;;;5.55;;
9799;SDS011;4939;52.00085300;4.17406100;2022-09-09T08:26:22;13.73;;;4.80;;
9799;SDS011;4939;52.00085300;4.17406100;2022-09-09T08:28:53;15.93;;;5.80;;
9799;SDS011;4939;52.00085300;4.17406100;2022-09-09T08:31:42;11.15;;;4.72;;
9799;SDS011;4939;52.00085300;4.17406100;2022-09-09T08:34:07;13.23;;;4.88;;
9799;SDS011;4939;52.00085300;4.17406100;2022-09-09T08:36:38;11.52;;;5.05;;
9799;SDS011;4939;52.00085300;4.17406100;2022-09-09T08:39:06;15.60;;;5.40;;
9799;SDS011;4939;52.00085300;4.17406100;2022-09-09T08:44:10;20.95;;;6.93;;
9799;SDS011;4939;52.00085300;4.17406100;2022-09-09T08:46:49;20.65;;;5.43;;
9799;SDS011;4939;52.00085300;4.17406100;2022-09-09T08:49:31;13.45;;;5.25;;
9799;SDS011;4939;52.00085300;4.17406100;2022-09-09T08:52:02;14.40;;;5.30;;
9799;SDS011;4939;52.00085300;4.17406100;2022-09-09T08:54:33;11.52;;;5.30;;
9799;SDS011;4939;52.00085300;4.17406100;2022-09-09T08:57:01;11.65;;;5.28;;
9799;SDS011;4939;52.00085300;4.17406100;2022-09-09T08:59:27;11.73;;;5.57;;
9799;SDS011;4939;52.00085300;4.17406100;2022-09-09T09:04:34;13.30;;;5.65;;
9799;SDS011;4939;52.00085300;4.17406100;2022-09-09T09:09:41;11.50;;;4.80;;
9799;SDS011;4939;52.00085300;4.17406100;2022-09-09T09:12:19;14.73;;;5.38;;
9799;SDS011;4939;52.00085300;4.17406100;2022-09-09T09:14:46;12.05;;;4.95;;
9799;SDS011;4939;52.00085300;4.17406100;2022-09-09T09:17:17;12.13;;;5.47;;
9799;SDS011;4939;52.00085300;4.17406100;2022-09-09T09:19:44;11.50;;;4.90;;
9799;SDS011;4939;52.00085300;4.17406100;2022-09-09T09:27:16;19.15;;;5.78;;
9799;SDS011;4939;52.00085300;4.17406100;2022-09-09T09:29:44;15.70;;;6.55;;
9799;SDS011;4939;52.00085300;4.17406100;2022-09-09T09:32:11;17.40;;;5.70;;
9799;SDS011;4939;52.00085300;4.17406100;2022-09-09T09:34:39;16.65;;;4.95;;
9799;SDS011;4939;52.00085300;4.17406100;2022-09-09T09:37:11;14.77;;;5.05;;
9799;SDS011;4939;52.00085300;4.17406100;2022-09-09T09:39:38;11.90;;;4.85;;
9799;SDS011;4939;52.00085300;4.17406100;2022-09-09T09:42:09;11.52;;;4.55;;
9799;SDS011;4939;52.00085300;4.17406100;2022-09-09T09:44:39;11.60;;;5.03;;
9799;SDS011;4939;52.00085300;4.17406100;2022-09-09T09:47:15;13.80;;;5.88;;
9799;SDS011;4939;52.00085300;4.17406100;2022-09-09T09:49:54;15.25;;;4.82;;
9799;SDS011;4939;52.00085300;4.17406100;2022-09-09T09:52:30;15.88;;;5.00;;
9799;SDS011;4939;52.00085300;4.17406100;2022-09-09T09:54:59;12.82;;;4.43;;
9799;SDS011;4939;52.00085300;4.17406100;2022-09-09T09:57:29;9.93;;;4.60;;
9799;SDS011;4939;52.00085300;4.17406100;2022-09-09T10:00:14;12.30;;;4.97;;
9799;SDS011;4939;52.00085300;4.17406100;2022-09-09T10:02:43;19.15;;;5.18;;
9799;SDS011;4939;52.00085300;4.17406100;2022-09-09T10:05:16;12.75;;;4.90;;
9799;SDS011;4939;52.00085300;4.17406100;2022-09-09T10:07:43;11.20;;;4.82;;
9799;SDS011;4939;52.00085300;4.17406100;2022-09-09T10:10:15;13.73;;;5.05;;
9799;SDS011;4939;52.00085300;4.17406100;2022-09-09T10:13:00;11.95;;;5.20;;
9799;SDS011;4939;52.00085300;4.17406100;2022-09-09T10:15:41;13.20;;;5.10;;
9799;SDS011;4939;52.00085300;4.17406100;2022-09-09T10:20:49;13.25;;;5.00;;
9799;SDS011;4939;52.00085300;4.17406100;2022-09-09T10:28:48;13.45;;;4.35;;
9799;SDS011;4939;52.00085300;4.17406100;2022-09-09T10:31:18;10.57;;;3.80;;
9799;SDS011;4939;52.00085300;4.17406100;2022-09-09T10:36:32;9.95;;;3.25;;
9799;SDS011;4939;52.00085300;4.17406100;2022-09-09T10:38:59;13.68;;;3.45;;
9799;SDS011;4939;52.00085300;4.17406100;2022-09-09T10:44:15;11.98;;;3.28;;
9799;SDS011;4939;52.00085300;4.17406100;2022-09-09T10:51:52;8.73;;;3.17;;
9799;SDS011;4939;52.00085300;4.17406100;2022-09-09T10:56:48;12.43;;;3.03;;
9799;SDS011;4939;52.00085300;4.17406100;2022-09-09T10:59:17;9.15;;;3.00;;
9799;SDS011;4939;52.00085300;4.17406100;2022-09-09T11:01:50;10.20;;;3.03;;
9799;SDS011;4939;52.00085300;4.17406100;2022-09-09T11:04:25;6.63;;;2.50;;
9799;SDS011;4939;52.00085300;4.17406100;2022-09-09T11:06:54;7.15;;;2.55;;
9799;SDS011;4939;52.00085300;4.17406100;2022-09-09T11:09:25;7.30;;;2.70;;
9799;SDS011;4939;52.00085300;4.17406100;2022-09-09T11:11:53;10.82;;;3.03;;
9799;SDS011;4939;52.00085300;4.17406100;2022-09-09T11:17:12;7.93;;;2.75;;
9799;SDS011;4939;52.00085300;4.17406100;2022-09-09T11:19:40;9.93;;;3.25;;
9799;SDS011;4939;52.00085300;4.17406100;2022-09-09T11:24:40;8.05;;;3.22;;
9799;SDS011;4939;52.00085300;4.17406100;2022-09-09T11:27:10;11.23;;;4.20;;
9799;SDS011;4939;52.00085300;4.17406100;2022-09-09T11:38:11;8.77;;;3.33;;
9799;SDS011;4939;52.00085300;4.17406100;2022-09-09T11:40:36;7.55;;;3.03;;
9799;SDS011;4939;52.00085300;4.17406100;2022-09-09T11:43:04;9.80;;;2.88;;
9799;SDS011;4939;52.00085300;4.17406100;2022-09-09T11:45:31;11.30;;;2.97;;
9799;SDS011;4939;52.00085300;4.17406100;2022-09-09T11:48:00;10.27;;;2.63;;
9799;SDS011;4939;52.00085300;4.17406100;2022-09-09T11:50:31;7.40;;;2.70;;
9799;SDS011;4939;52.00085300;4.17406100;2022-09-09T11:55:25;6.07;;;2.60;;
9799;SDS011;4939;52.00085300;4.17406100;2022-09-09T11:58:01;10.35;;;3.03;;
9799;SDS011;4939;52.00085300;4.17406100;2022-09-09T12:00:32;11.60;;;2.90;;
9799;SDS011;4939;52.00085300;4.17406100;2022-09-09T12:02:59;8.02;;;3.00;;
9799;SDS011;4939;52.00085300;4.17406100;2022-09-09T12:05:34;12.65;;;4.05;;
9799;SDS011;4939;52.00085300;4.17406100;2022-09-09T12:08:02;8.45;;;2.90;;
9799;SDS011;4939;52.00085300;4.17406100;2022-09-09T12:13:07;7.75;;;3.40;;
9799;SDS011;4939;52.00085300;4.17406100;2022-09-09T12:15:34;7.10;;;3.47;;
9799;SDS011;4939;52.00085300;4.17406100;2022-09-09T12:18:00;10.82;;;3.70;;
9799;SDS011;4939;52.00085300;4.17406100;2022-09-09T12:28:27;9.60;;;4.47;;
9799;SDS011;4939;52.00085300;4.17406100;2022-09-09T12:30:58;8.88;;;3.88;;
9799;SDS011;4939;52.00085300;4.17406100;2022-09-09T12:33:33;10.63;;;4.10;;
9799;SDS011;4939;52.00085300;4.17406100;2022-09-09T12:36:00;9.13;;;3.47;;
9799;SDS011;4939;52.00085300;4.17406100;2022-09-09T12:38:32;12.40;;;3.33;;
9799;SDS011;4939;52.00085300;4.17406100;2022-09-09T12:40:58;9.50;;;3.00;;
9799;SDS011;4939;52.00085300;4.17406100;2022-09-09T12:43:25;11.90;;;3.50;;
9799;SDS011;4939;52.00085300;4.17406100;2022-09-09T12:46:00;9.63;;;3.20;;
9799;SDS011;4939;52.00085300;4.17406100;2022-09-09T12:48:36;8.02;;;3.05;;
9799;SDS011;4939;52.00085300;4.17406100;2022-09-09T12:51:03;10.65;;;3.30;;
9799;SDS011;4939;52.00085300;4.17406100;2022-09-09T12:53:35;10.75;;;3.20;;
9799;SDS011;4939;52.00085300;4.17406100;2022-09-09T12:56:04;10.68;;;2.80;;
9799;SDS011;4939;52.00085300;4.17406100;2022-09-09T12:58:33;10.98;;;3.25;;
9799;SDS011;4939;52.00085300;4.17406100;2022-09-09T13:00:59;12.88;;;3.20;;
9799;SDS011;4939;52.00085300;4.17406100;2022-09-09T13:03:26;10.82;;;3.05;;
9799;SDS011;4939;52.00085300;4.17406100;2022-09-09T13:05:53;13.90;;;3.65;;
9799;SDS011;4939;52.00085300;4.17406100;2022-09-09T13:08:19;13.30;;;3.10;;
9799;SDS011;4939;52.00085300;4.17406100;2022-09-09T13:10:56;11.32;;;3.08;;
9799;SDS011;4939;52.00085300;4.17406100;2022-09-09T13:13:28;11.02;;;2.45;;
9799;SDS011;4939;52.00085300;4.17406100;2022-09-09T13:15:56;11.45;;;2.95;;
9799;SDS011;4939;52.00085300;4.17406100;2022-09-09T13:18:23;10.43;;;2.50;;
9799;SDS011;4939;52.00085300;4.17406100;2022-09-09T13:20:50;10.38;;;2.17;;
9799;SDS011;4939;52.00085300;4.17406100;2022-09-09T13:23:18;13.57;;;2.55;;
9799;SDS011;4939;52.00085300;4.17406100;2022-09-09T13:25:54;10.57;;;2.35;;
9799;SDS011;4939;52.00085300;4.17406100;2022-09-09T13:28:22;11.20;;;2.35;;
9799;SDS011;4939;52.00085300;4.17406100;2022-09-09T13:31:24;10.18;;;2.05;;
9799;SDS011;4939;52.00085300;4.17406100;2022-09-09T13:33:41;15.85;;;2.75;;
9799;SDS011;4939;52.00085300;4.17406100;2022-09-09T13:36:08;17.98;;;3.13;;
9799;SDS011;4939;52.00085300;4.17406100;2022-09-09T13:38:36;15.98;;;3.25;;
9799;SDS011;4939;52.00085300;4.17406100;2022-09-09T13:41:07;20.67;;;4.28;;
9799;SDS011;4939;52.00085300;4.17406100;2022-09-09T13:43:37;14.75;;;3.22;;
9799;SDS011;4939;52.00085300;4.17406100;2022-09-09T13:46:04;20.00;;;2.92;;
9799;SDS011;4939;52.00085300;4.17406100;2022-09-09T13:48:31;21.38;;;3.20;;
9799;SDS011;4939;52.00085300;4.17406100;2022-09-09T13:50:59;14.98;;;3.30;;
9799;SDS011;4939;52.00085300;4.17406100;2022-09-09T13:53:25;13.68;;;2.72;;
9799;SDS011;4939;52.00085300;4.17406100;2022-09-09T13:55:51;11.82;;;2.78;;
9799;SDS011;4939;52.00085300;4.17406100;2022-09-09T13:58:17;21.58;;;2.80;;
9799;SDS011;4939;52.00085300;4.17406100;2022-09-09T14:00:44;11.38;;;2.70;;
9799;SDS011;4939;52.00085300;4.17406100;2022-09-09T14:03:30;7.13;;;1.85;;
9799;SDS011;4939;52.00085300;4.17406100;2022-09-09T14:05:56;8.75;;;2.15;;
9799;SDS011;4939;52.00085300;4.17406100;2022-09-09T14:08:24;10.13;;;2.05;;
9799;SDS011;4939;52.00085300;4.17406100;2022-09-09T14:10:50;7.20;;;1.70;;
9799;SDS011;4939;52.00085300;4.17406100;2022-09-09T14:13:17;9.15;;;1.90;;
9799;SDS011;4939;52.00085300;4.17406100;2022-09-09T14:15:43;13.10;;;2.03;;
9799;SDS011;4939;52.00085300;4.17406100;2022-09-09T14:18:11;5.72;;;1.65;;
9799;SDS011;4939;52.00085300;4.17406100;2022-09-09T14:20:38;8.80;;;2.15;;
9799;SDS011;4939;52.00085300;4.17406100;2022-09-09T14:23:04;10.40;;;2.40;;
9799;SDS011;4939;52.00085300;4.17406100;2022-09-09T14:25:30;11.13;;;2.42;;
9799;SDS011;4939;52.00085300;4.17406100;2022-09-09T14:27:56;13.63;;;2.58;;
9799;SDS011;4939;52.00085300;4.17406100;2022-09-09T14:30:22;17.15;;;3.28;;
9799;SDS011;4939;52.00085300;4.17406100;2022-09-09T14:32:48;10.13;;;2.13;;
9799;SDS011;4939;52.00085300;4.17406100;2022-09-09T14:35:14;9.70;;;2.03;;
9799;SDS011;4939;52.00085300;4.17406100;2022-09-09T14:37:42;8.90;;;2.55;;
9799;SDS011;4939;52.00085300;4.17406100;2022-09-09T14:40:08;16.20;;;2.75;;
9799;SDS011;4939;52.00085300;4.17406100;2022-09-09T14:42:36;9.25;;;2.40;;